sensor_id;sensor_type;location;lat;lon;timestamp;temperature;humidity
64796;DHT22;51229;51.980;6.722;2023-04-29T00:01:25;9.00;99.90
64796;DHT22;51229;51.980;6.722;2023-04-29T00:03:52;8.80;99.90
64796;DHT22;51229;51.980;6.722;2023-04-29T00:06:18;8.80;99.90
64796;DHT22;51229;51.980;6.722;2023-04-29T00:08:44;8.80;99.90
64796;DHT22;51229;51.980;6.722;2023-04-29T00:11:10;8.80;99.90
64796;DHT22;51229;51.980;6.722;2023-04-29T00:13:36;8.80;99.90
64796;DHT22;51229;51.980;6.722;2023-04-29T00:16:04;8.80;99.90
64796;DHT22;51229;51.980;6.722;2023-04-29T00:18:30;8.80;99.90
64796;DHT22;51229;51.980;6.722;2023-04-29T00:20:56;8.70;99.90
64796;DHT22;51229;51.980;6.722;2023-04-29T00:23:22;8.70;99.90
64796;DHT22;51229;51.980;6.722;2023-04-29T00:25:48;8.70;99.90
64796;DHT22;51229;51.980;6.722;2023-04-29T00:28:14;8.70;99.90
64796;DHT22;51229;51.980;6.722;2023-04-29T00:30:40;8.70;99.90
64796;DHT22;51229;51.980;6.722;2023-04-29T00:33:06;8.70;99.90
64796;DHT22;51229;51.980;6.722;2023-04-29T00:35:31;8.70;99.90
64796;DHT22;51229;51.980;6.722;2023-04-29T00:37:57;8.70;99.90
64796;DHT22;51229;51.980;6.722;2023-04-29T00:40:23;8.60;99.90
64796;DHT22;51229;51.980;6.722;2023-04-29T00:42:48;8.70;99.90
64796;DHT22;51229;51.980;6.722;2023-04-29T00:45:15;8.60;99.90
64796;DHT22;51229;51.980;6.722;2023-04-29T00:47:40;8.60;99.90
64796;DHT22;51229;51.980;6.722;2023-04-29T00:50:07;8.70;99.90
64796;DHT22;51229;51.980;6.722;2023-04-29T00:52:33;8.60;99.90
64796;DHT22;51229;51.980;6.722;2023-04-29T00:54:59;8.60;99.90
64796;DHT22;51229;51.980;6.722;2023-04-29T00:57:25;8.50;99.90
64796;DHT22;51229;51.980;6.722;2023-04-29T00:59:57;8.50;99.90
64796;DHT22;51229;51.980;6.722;2023-04-29T01:02:24;8.50;99.90
64796;DHT22;51229;51.980;6.722;2023-04-29T01:04:51;8.50;99.90
64796;DHT22;51229;51.980;6.722;2023-04-29T01:10:03;8.40;99.90
64796;DHT22;51229;51.980;6.722;2023-04-29T01:15:59;8.40;99.90
64796;DHT22;51229;51.980;6.722;2023-04-29T01:18:34;8.40;99.90
64796;DHT22;51229;51.980;6.722;2023-04-29T01:21:01;8.40;99.90
64796;DHT22;51229;51.980;6.722;2023-04-29T01:23:28;8.40;99.90
64796;DHT22;51229;51.980;6.722;2023-04-29T01:25:55;8.40;99.90
64796;DHT22;51229;51.980;6.722;2023-04-29T01:29:01;8.40;99.90
64796;DHT22;51229;51.980;6.722;2023-04-29T01:31:45;8.40;99.90
64796;DHT22;51229;51.980;6.722;2023-04-29T01:34:22;8.40;99.90
64796;DHT22;51229;51.980;6.722;2023-04-29T01:37:07;8.40;99.90
64796;DHT22;51229;51.980;6.722;2023-04-29T01:39:51;8.40;99.90
64796;DHT22;51229;51.980;6.722;2023-04-29T01:42:25;8.20;99.90
64796;DHT22;51229;51.980;6.722;2023-04-29T01:44:56;8.30;99.90
64796;DHT22;51229;51.980;6.722;2023-04-29T01:47:26;8.30;99.90
64796;DHT22;51229;51.980;6.722;2023-04-29T01:49:53;8.30;99.90
64796;DHT22;51229;51.980;6.722;2023-04-29T01:52:19;8.30;99.90
64796;DHT22;51229;51.980;6.722;2023-04-29T01:54:55;8.30;99.90
64796;DHT22;51229;51.980;6.722;2023-04-29T01:57:22;8.30;99.90
64796;DHT22;51229;51.980;6.722;2023-04-29T01:59:54;8.30;99.90
64796;DHT22;51229;51.980;6.722;2023-04-29T02:02:40;8.20;99.90
64796;DHT22;51229;51.980;6.722;2023-04-29T02:05:17;8.20;99.90
64796;DHT22;51229;51.980;6.722;2023-04-29T02:07:51;8.20;99.90
64796;DHT22;51229;51.980;6.722;2023-04-29T02:10:17;8.20;99.90
64796;DHT22;51229;51.980;6.722;2023-04-29T02:12:45;8.20;99.90
64796;DHT22;51229;51.980;6.722;2023-04-29T02:15:11;8.20;99.90
64796;DHT22;51229;51.980;6.722;2023-04-29T02:17:37;8.20;99.90
64796;DHT22;51229;51.980;6.722;2023-04-29T02:20:03;8.20;99.90
64796;DHT22;51229;51.980;6.722;2023-04-29T02:22:28;8.20;99.90
64796;DHT22;51229;51.980;6.722;2023-04-29T02:24:55;8.20;99.90
64796;DHT22;51229;51.980;6.722;2023-04-29T02:27:20;8.20;99.90
64796;DHT22;51229;51.980;6.722;2023-04-29T02:29:47;8.10;99.90
64796;DHT22;51229;51.980;6.722;2023-04-29T02:32:13;8.20;99.90
64796;DHT22;51229;51.980;6.722;2023-04-29T02:34:40;8.10;99.90
64796;DHT22;51229;51.980;6.722;2023-04-29T02:37:05;8.10;99.90
64796;DHT22;51229;51.980;6.722;2023-04-29T02:39:31;8.10;99.90
64796;DHT22;51229;51.980;6.722;2023-04-29T02:41:57;8.10;99.90
64796;DHT22;51229;51.980;6.722;2023-04-29T02:44:23;8.10;99.90
64796;DHT22;51229;51.980;6.722;2023-04-29T02:46:49;8.10;99.90
64796;DHT22;51229;51.980;6.722;2023-04-29T02:49:14;8.10;99.90
64796;DHT22;51229;51.980;6.722;2023-04-29T02:51:40;8.10;99.90
64796;DHT22;51229;51.980;6.722;2023-04-29T02:54:07;8.00;99.90
64796;DHT22;51229;51.980;6.722;2023-04-29T02:56:32;8.00;99.90
64796;DHT22;51229;51.980;6.722;2023-04-29T02:58:58;8.00;99.90
64796;DHT22;51229;51.980;6.722;2023-04-29T03:01:24;8.10;99.90
64796;DHT22;51229;51.980;6.722;2023-04-29T03:03:49;8.00;99.90
64796;DHT22;51229;51.980;6.722;2023-04-29T03:06:16;8.00;99.90
64796;DHT22;51229;51.980;6.722;2023-04-29T03:08:41;8.00;99.90
64796;DHT22;51229;51.980;6.722;2023-04-29T03:11:07;8.00;99.90
64796;DHT22;51229;51.980;6.722;2023-04-29T03:13:34;8.00;99.90
64796;DHT22;51229;51.980;6.722;2023-04-29T03:16:00;8.00;99.90
64796;DHT22;51229;51.980;6.722;2023-04-29T03:18:26;8.00;99.90
64796;DHT22;51229;51.980;6.722;2023-04-29T03:20:52;8.00;99.90
64796;DHT22;51229;51.980;6.722;2023-04-29T03:23:18;8.00;99.90
64796;DHT22;51229;51.980;6.722;2023-04-29T03:25:44;7.90;99.90
64796;DHT22;51229;51.980;6.722;2023-04-29T03:28:09;7.90;99.90
64796;DHT22;51229;51.980;6.722;2023-04-29T03:30:36;7.90;99.90
64796;DHT22;51229;51.980;6.722;2023-04-29T03:33:02;7.90;99.90
64796;DHT22;51229;51.980;6.722;2023-04-29T03:35:29;7.90;99.90
64796;DHT22;51229;51.980;6.722;2023-04-29T03:38:13;7.90;99.90
64796;DHT22;51229;51.980;6.722;2023-04-29T03:40:39;7.90;99.90
64796;DHT22;51229;51.980;6.722;2023-04-29T03:43:05;7.90;99.90
64796;DHT22;51229;51.980;6.722;2023-04-29T03:45:33;7.90;99.90
64796;DHT22;51229;51.980;6.722;2023-04-29T03:47:59;7.90;99.90
64796;DHT22;51229;51.980;6.722;2023-04-29T03:50:25;7.90;99.90
64796;DHT22;51229;51.980;6.722;2023-04-29T03:52:51;7.90;99.90
64796;DHT22;51229;51.980;6.722;2023-04-29T03:55:18;7.90;99.90
64796;DHT22;51229;51.980;6.722;2023-04-29T03:57:44;7.80;99.90
64796;DHT22;51229;51.980;6.722;2023-04-29T04:00:11;7.80;99.90
64796;DHT22;51229;51.980;6.722;2023-04-29T04:02:43;7.80;99.90
64796;DHT22;51229;51.980;6.722;2023-04-29T04:05:09;7.80;99.90
64796;DHT22;51229;51.980;6.722;2023-04-29T04:07:36;7.80;99.90
64796;DHT22;51229;51.980;6.722;2023-04-29T04:10:20;7.80;99.90
64796;DHT22;51229;51.980;6.722;2023-04-29T04:12:46;7.80;99.90
64796;DHT22;51229;51.980;6.722;2023-04-29T04:15:12;7.80;99.90
64796;DHT22;51229;51.980;6.722;2023-04-29T04:17:38;7.70;99.90
64796;DHT22;51229;51.980;6.722;2023-04-29T04:20:04;7.70;99.90
64796;DHT22;51229;51.980;6.722;2023-04-29T04:22:30;7.70;99.90
64796;DHT22;51229;51.980;6.722;2023-04-29T04:25:11;7.80;99.90
64796;DHT22;51229;51.980;6.722;2023-04-29T04:27:37;7.70;99.90
64796;DHT22;51229;51.980;6.722;2023-04-29T04:30:07;7.70;99.90
64796;DHT22;51229;51.980;6.722;2023-04-29T04:32:33;7.70;99.90
64796;DHT22;51229;51.980;6.722;2023-04-29T04:34:59;7.70;99.90
64796;DHT22;51229;51.980;6.722;2023-04-29T04:37:25;7.70;99.90
64796;DHT22;51229;51.980;6.722;2023-04-29T04:39:53;7.70;99.90
64796;DHT22;51229;51.980;6.722;2023-04-29T04:42:19;7.70;99.90
64796;DHT22;51229;51.980;6.722;2023-04-29T04:44:49;7.60;99.90
64796;DHT22;51229;51.980;6.722;2023-04-29T04:47:26;7.70;99.90
64796;DHT22;51229;51.980;6.722;2023-04-29T04:49:59;7.60;99.90
64796;DHT22;51229;51.980;6.722;2023-04-29T04:52:25;7.70;99.90
64796;DHT22;51229;51.980;6.722;2023-04-29T04:55:09;7.70;99.90
64796;DHT22;51229;51.980;6.722;2023-04-29T04:57:36;7.70;99.90
64796;DHT22;51229;51.980;6.722;2023-04-29T05:00:02;7.70;99.90
64796;DHT22;51229;51.980;6.722;2023-04-29T05:02:29;7.60;99.90
64796;DHT22;51229;51.980;6.722;2023-04-29T05:04:55;7.60;99.90
64796;DHT22;51229;51.980;6.722;2023-04-29T05:07:24;7.60;99.90
64796;DHT22;51229;51.980;6.722;2023-04-29T05:09:59;7.60;99.90
64796;DHT22;51229;51.980;6.722;2023-04-29T05:12:27;7.60;99.90
64796;DHT22;51229;51.980;6.722;2023-04-29T05:14:56;7.60;99.90
64796;DHT22;51229;51.980;6.722;2023-04-29T05:17:22;7.60;99.90
64796;DHT22;51229;51.980;6.722;2023-04-29T05:19:48;7.60;99.90
64796;DHT22;51229;51.980;6.722;2023-04-29T05:22:14;7.60;99.90
64796;DHT22;51229;51.980;6.722;2023-04-29T05:24:40;7.60;99.90
64796;DHT22;51229;51.980;6.722;2023-04-29T05:27:06;7.60;99.90
64796;DHT22;51229;51.980;6.722;2023-04-29T05:29:31;7.60;99.90
64796;DHT22;51229;51.980;6.722;2023-04-29T05:32:00;7.60;99.90
64796;DHT22;51229;51.980;6.722;2023-04-29T05:34:26;7.60;99.90
64796;DHT22;51229;51.980;6.722;2023-04-29T05:36:51;7.50;99.90
64796;DHT22;51229;51.980;6.722;2023-04-29T05:39:17;7.60;99.90
64796;DHT22;51229;51.980;6.722;2023-04-29T05:41:46;7.60;99.90
64796;DHT22;51229;51.980;6.722;2023-04-29T05:44:30;7.50;99.90
64796;DHT22;51229;51.980;6.722;2023-04-29T05:46:57;7.60;99.90
64796;DHT22;51229;51.980;6.722;2023-04-29T05:49:23;7.50;99.90
64796;DHT22;51229;51.980;6.722;2023-04-29T05:51:49;7.50;99.90
64796;DHT22;51229;51.980;6.722;2023-04-29T05:54:15;7.50;99.90
64796;DHT22;51229;51.980;6.722;2023-04-29T05:56:40;7.50;99.90
64796;DHT22;51229;51.980;6.722;2023-04-29T05:59:08;7.60;99.90
64796;DHT22;51229;51.980;6.722;2023-04-29T06:01:34;7.60;99.90
64796;DHT22;51229;51.980;6.722;2023-04-29T06:04:00;7.50;99.90
64796;DHT22;51229;51.980;6.722;2023-04-29T06:06:44;7.50;99.90
64796;DHT22;51229;51.980;6.722;2023-04-29T06:09:17;7.50;99.90
64796;DHT22;51229;51.980;6.722;2023-04-29T06:11:45;7.50;99.90
64796;DHT22;51229;51.980;6.722;2023-04-29T06:14:10;7.50;99.90
64796;DHT22;51229;51.980;6.722;2023-04-29T06:16:36;7.50;99.90
64796;DHT22;51229;51.980;6.722;2023-04-29T06:19:03;7.50;99.90
64796;DHT22;51229;51.980;6.722;2023-04-29T06:21:28;7.50;99.90
64796;DHT22;51229;51.980;6.722;2023-04-29T06:23:54;7.50;99.90
64796;DHT22;51229;51.980;6.722;2023-04-29T06:26:20;7.50;99.90
64796;DHT22;51229;51.980;6.722;2023-04-29T06:28:46;7.60;99.90
64796;DHT22;51229;51.980;6.722;2023-04-29T06:31:13;7.50;99.90
64796;DHT22;51229;51.980;6.722;2023-04-29T06:33:40;7.50;99.90
64796;DHT22;51229;51.980;6.722;2023-04-29T06:36:06;7.50;99.90
64796;DHT22;51229;51.980;6.722;2023-04-29T06:38:51;7.50;99.90
64796;DHT22;51229;51.980;6.722;2023-04-29T06:41:35;7.50;99.90
64796;DHT22;51229;51.980;6.722;2023-04-29T06:44:24;7.50;99.90
64796;DHT22;51229;51.980;6.722;2023-04-29T06:47:22;7.60;99.90
64796;DHT22;51229;51.980;6.722;2023-04-29T06:50:05;7.60;99.90
64796;DHT22;51229;51.980;6.722;2023-04-29T06:52:31;7.60;99.90
64796;DHT22;51229;51.980;6.722;2023-04-29T06:54:57;7.50;99.90
64796;DHT22;51229;51.980;6.722;2023-04-29T06:57:23;7.50;99.90
64796;DHT22;51229;51.980;6.722;2023-04-29T06:59:49;7.60;99.90
64796;DHT22;51229;51.980;6.722;2023-04-29T07:02:14;7.60;99.90
64796;DHT22;51229;51.980;6.722;2023-04-29T07:04:40;7.60;99.90
64796;DHT22;51229;51.980;6.722;2023-04-29T07:07:06;7.50;99.90
64796;DHT22;51229;51.980;6.722;2023-04-29T07:09:33;7.50;99.90
64796;DHT22;51229;51.980;6.722;2023-04-29T07:11:59;7.60;99.90
64796;DHT22;51229;51.980;6.722;2023-04-29T07:14:29;7.60;99.90
64796;DHT22;51229;51.980;6.722;2023-04-29T07:16:54;7.60;99.90
64796;DHT22;51229;51.980;6.722;2023-04-29T07:19:20;7.60;99.90
64796;DHT22;51229;51.980;6.722;2023-04-29T07:21:46;7.70;99.90
64796;DHT22;51229;51.980;6.722;2023-04-29T07:24:13;7.70;99.90
64796;DHT22;51229;51.980;6.722;2023-04-29T07:26:38;7.80;99.90
64796;DHT22;51229;51.980;6.722;2023-04-29T07:29:05;7.70;99.90
64796;DHT22;51229;51.980;6.722;2023-04-29T07:31:31;7.70;99.90
64796;DHT22;51229;51.980;6.722;2023-04-29T07:34:01;7.80;99.90
64796;DHT22;51229;51.980;6.722;2023-04-29T07:36:27;7.80;99.90
64796;DHT22;51229;51.980;6.722;2023-04-29T07:38:53;7.80;99.90
64796;DHT22;51229;51.980;6.722;2023-04-29T07:41:19;7.80;99.90
64796;DHT22;51229;51.980;6.722;2023-04-29T07:43:45;7.80;99.90
64796;DHT22;51229;51.980;6.722;2023-04-29T07:46:11;7.80;99.90
64796;DHT22;51229;51.980;6.722;2023-04-29T07:48:37;7.80;99.90
64796;DHT22;51229;51.980;6.722;2023-04-29T07:51:05;7.80;99.90
64796;DHT22;51229;51.980;6.722;2023-04-29T07:53:31;7.80;99.90
64796;DHT22;51229;51.980;6.722;2023-04-29T07:55:56;7.80;99.90
64796;DHT22;51229;51.980;6.722;2023-04-29T07:58:23;7.80;99.90
64796;DHT22;51229;51.980;6.722;2023-04-29T08:00:49;7.90;99.90
64796;DHT22;51229;51.980;6.722;2023-04-29T08:03:14;7.90;99.90
64796;DHT22;51229;51.980;6.722;2023-04-29T08:05:40;7.90;99.90
64796;DHT22;51229;51.980;6.722;2023-04-29T08:08:07;7.90;99.90
64796;DHT22;51229;51.980;6.722;2023-04-29T08:10:37;7.90;99.90
64796;DHT22;51229;51.980;6.722;2023-04-29T08:13:07;8.10;99.90
64796;DHT22;51229;51.980;6.722;2023-04-29T08:15:33;8.10;99.90
64796;DHT22;51229;51.980;6.722;2023-04-29T08:17:59;8.00;99.90
64796;DHT22;51229;51.980;6.722;2023-04-29T08:20:24;7.90;99.90
64796;DHT22;51229;51.980;6.722;2023-04-29T08:22:50;8.00;99.90
64796;DHT22;51229;51.980;6.722;2023-04-29T08:25:16;8.10;99.90
64796;DHT22;51229;51.980;6.722;2023-04-29T08:27:42;8.20;99.90
64796;DHT22;51229;51.980;6.722;2023-04-29T08:30:10;8.20;99.90
64796;DHT22;51229;51.980;6.722;2023-04-29T08:32:36;8.30;99.90
64796;DHT22;51229;51.980;6.722;2023-04-29T08:35:01;8.20;99.90
64796;DHT22;51229;51.980;6.722;2023-04-29T08:37:27;8.20;99.90
64796;DHT22;51229;51.980;6.722;2023-04-29T08:39:53;8.20;99.90
64796;DHT22;51229;51.980;6.722;2023-04-29T08:42:31;8.40;99.90
64796;DHT22;51229;51.980;6.722;2023-04-29T08:44:58;8.40;99.90
64796;DHT22;51229;51.980;6.722;2023-04-29T08:47:26;8.40;99.90
64796;DHT22;51229;51.980;6.722;2023-04-29T08:49:55;8.60;99.90
64796;DHT22;51229;51.980;6.722;2023-04-29T08:52:21;8.70;99.90
64796;DHT22;51229;51.980;6.722;2023-04-29T08:54:47;8.80;99.90
64796;DHT22;51229;51.980;6.722;2023-04-29T08:57:13;9.00;99.90
64796;DHT22;51229;51.980;6.722;2023-04-29T08:59:39;8.90;99.90
64796;DHT22;51229;51.980;6.722;2023-04-29T09:02:09;9.00;99.90
64796;DHT22;51229;51.980;6.722;2023-04-29T09:04:46;9.20;99.90
64796;DHT22;51229;51.980;6.722;2023-04-29T09:07:14;9.20;99.90
64796;DHT22;51229;51.980;6.722;2023-04-29T09:09:40;9.40;99.90
64796;DHT22;51229;51.980;6.722;2023-04-29T09:12:06;9.50;99.90
64796;DHT22;51229;51.980;6.722;2023-04-29T09:14:32;9.70;99.90
64796;DHT22;51229;51.980;6.722;2023-04-29T09:16:59;9.80;99.90
64796;DHT22;51229;51.980;6.722;2023-04-29T09:19:35;9.90;99.90
64796;DHT22;51229;51.980;6.722;2023-04-29T09:22:02;9.80;99.90
64796;DHT22;51229;51.980;6.722;2023-04-29T09:24:29;9.80;99.90
64796;DHT22;51229;51.980;6.722;2023-04-29T09:26:56;9.80;99.90
64796;DHT22;51229;51.980;6.722;2023-04-29T09:29:23;10.00;99.90
64796;DHT22;51229;51.980;6.722;2023-04-29T09:31:49;10.10;99.90
64796;DHT22;51229;51.980;6.722;2023-04-29T09:34:38;10.10;99.90
64796;DHT22;51229;51.980;6.722;2023-04-29T09:37:23;10.40;99.90
64796;DHT22;51229;51.980;6.722;2023-04-29T09:39:49;10.50;99.90
64796;DHT22;51229;51.980;6.722;2023-04-29T09:42:15;10.50;99.90
64796;DHT22;51229;51.980;6.722;2023-04-29T09:44:41;10.80;99.90
64796;DHT22;51229;51.980;6.722;2023-04-29T09:47:08;10.80;99.90
64796;DHT22;51229;51.980;6.722;2023-04-29T09:49:42;11.10;99.90
64796;DHT22;51229;51.980;6.722;2023-04-29T09:52:14;11.40;99.90
64796;DHT22;51229;51.980;6.722;2023-04-29T09:54:43;12.30;99.90
64796;DHT22;51229;51.980;6.722;2023-04-29T09:57:10;11.80;99.90
64796;DHT22;51229;51.980;6.722;2023-04-29T09:59:39;11.70;99.90
64796;DHT22;51229;51.980;6.722;2023-04-29T10:02:16;12.20;99.90
64796;DHT22;51229;51.980;6.722;2023-04-29T10:04:47;13.00;99.90
64796;DHT22;51229;51.980;6.722;2023-04-29T10:07:18;14.40;99.90
64796;DHT22;51229;51.980;6.722;2023-04-29T10:09:46;14.10;99.90
64796;DHT22;51229;51.980;6.722;2023-04-29T10:12:18;12.70;99.90
64796;DHT22;51229;51.980;6.722;2023-04-29T10:14:54;12.00;99.90
64796;DHT22;51229;51.980;6.722;2023-04-29T10:17:44;12.60;99.90
64796;DHT22;51229;51.980;6.722;2023-04-29T10:20:13;14.40;99.90
64796;DHT22;51229;51.980;6.722;2023-04-29T10:22:48;15.30;99.90
64796;DHT22;51229;51.980;6.722;2023-04-29T10:25:16;14.40;99.90
64796;DHT22;51229;51.980;6.722;2023-04-29T10:27:43;13.30;99.90
64796;DHT22;51229;51.980;6.722;2023-04-29T10:30:12;12.80;99.90
64796;DHT22;51229;51.980;6.722;2023-04-29T10:32:42;12.40;99.90
64796;DHT22;51229;51.980;6.722;2023-04-29T10:35:09;12.20;99.90
64796;DHT22;51229;51.980;6.722;2023-04-29T10:37:36;12.40;99.90
64796;DHT22;51229;51.980;6.722;2023-04-29T10:42:51;12.60;99.90
64796;DHT22;51229;51.980;6.722;2023-04-29T10:53:16;14.00;99.90
64796;DHT22;51229;51.980;6.722;2023-04-29T10:55:47;13.50;99.90
64796;DHT22;51229;51.980;6.722;2023-04-29T10:58:39;13.20;99.90
64796;DHT22;51229;51.980;6.722;2023-04-29T11:01:06;13.40;99.90
64796;DHT22;51229;51.980;6.722;2023-04-29T11:03:54;13.60;99.90
64796;DHT22;51229;51.980;6.722;2023-04-29T11:06:26;13.80;99.90
64796;DHT22;51229;51.980;6.722;2023-04-29T11:11:43;15.60;99.90
64796;DHT22;51229;51.980;6.722;2023-04-29T11:14:11;14.60;99.90
64796;DHT22;51229;51.980;6.722;2023-04-29T11:16:37;13.50;99.90
64796;DHT22;51229;51.980;6.722;2023-04-29T11:19:05;13.20;99.90
64796;DHT22;51229;51.980;6.722;2023-04-29T11:21:35;13.20;99.90
64796;DHT22;51229;51.980;6.722;2023-04-29T11:24:02;13.20;99.90
64796;DHT22;51229;51.980;6.722;2023-04-29T11:26:34;13.20;99.90
64796;DHT22;51229;51.980;6.722;2023-04-29T11:29:00;13.60;99.90
64796;DHT22;51229;51.980;6.722;2023-04-29T11:31:29;13.70;99.90
64796;DHT22;51229;51.980;6.722;2023-04-29T11:33:55;13.70;99.90
64796;DHT22;51229;51.980;6.722;2023-04-29T11:36:20;13.70;99.90
64796;DHT22;51229;51.980;6.722;2023-04-29T11:38:46;13.70;99.90
64796;DHT22;51229;51.980;6.722;2023-04-29T11:41:12;13.80;99.90
64796;DHT22;51229;51.980;6.722;2023-04-29T11:43:40;14.80;99.90
64796;DHT22;51229;51.980;6.722;2023-04-29T11:46:13;14.90;99.90
64796;DHT22;51229;51.980;6.722;2023-04-29T11:48:48;14.90;99.90
64796;DHT22;51229;51.980;6.722;2023-04-29T11:51:15;14.70;99.90
64796;DHT22;51229;51.980;6.722;2023-04-29T11:53:42;14.30;99.90
64796;DHT22;51229;51.980;6.722;2023-04-29T11:56:08;14.50;99.90
64796;DHT22;51229;51.980;6.722;2023-04-29T11:58:35;14.50;99.90
64796;DHT22;51229;51.980;6.722;2023-04-29T12:01:02;14.50;99.90
64796;DHT22;51229;51.980;6.722;2023-04-29T12:03:30;14.40;99.90
64796;DHT22;51229;51.980;6.722;2023-04-29T12:05:56;14.30;99.90
64796;DHT22;51229;51.980;6.722;2023-04-29T12:08:27;14.40;99.90
64796;DHT22;51229;51.980;6.722;2023-04-29T12:10:57;14.90;99.90
64796;DHT22;51229;51.980;6.722;2023-04-29T12:13:25;15.10;99.90
64796;DHT22;51229;51.980;6.722;2023-04-29T12:15:52;15.30;99.90
64796;DHT22;51229;51.980;6.722;2023-04-29T12:18:18;15.10;99.90
64796;DHT22;51229;51.980;6.722;2023-04-29T12:20:45;14.90;99.90
64796;DHT22;51229;51.980;6.722;2023-04-29T12:23:13;14.60;99.90
64796;DHT22;51229;51.980;6.722;2023-04-29T12:25:40;14.50;99.90
64796;DHT22;51229;51.980;6.722;2023-04-29T12:28:13;14.60;99.90
64796;DHT22;51229;51.980;6.722;2023-04-29T12:30:39;14.60;99.90
64796;DHT22;51229;51.980;6.722;2023-04-29T12:33:07;14.70;99.90
64796;DHT22;51229;51.980;6.722;2023-04-29T12:35:34;14.40;99.90
64796;DHT22;51229;51.980;6.722;2023-04-29T12:38:01;14.50;99.90
64796;DHT22;51229;51.980;6.722;2023-04-29T12:40:27;14.50;99.90
64796;DHT22;51229;51.980;6.722;2023-04-29T12:42:53;14.60;99.90
64796;DHT22;51229;51.980;6.722;2023-04-29T12:45:29;14.70;99.90
64796;DHT22;51229;51.980;6.722;2023-04-29T12:47:56;14.80;99.90
64796;DHT22;51229;51.980;6.722;2023-04-29T12:50:36;15.10;99.90
64796;DHT22;51229;51.980;6.722;2023-04-29T12:53:07;15.80;99.90
64796;DHT22;51229;51.980;6.722;2023-04-29T12:55:37;15.70;99.90
64796;DHT22;51229;51.980;6.722;2023-04-29T12:58:03;15.90;99.90
64796;DHT22;51229;51.980;6.722;2023-04-29T13:00:30;16.50;99.90
64796;DHT22;51229;51.980;6.722;2023-04-29T13:02:56;16.40;99.90
64796;DHT22;51229;51.980;6.722;2023-04-29T13:05:21;16.60;99.90
64796;DHT22;51229;51.980;6.722;2023-04-29T13:07:48;17.00;99.90
64796;DHT22;51229;51.980;6.722;2023-04-29T13:10:14;16.50;99.90
64796;DHT22;51229;51.980;6.722;2023-04-29T13:12:40;15.80;99.90
64796;DHT22;51229;51.980;6.722;2023-04-29T13:15:06;15.50;99.90
64796;DHT22;51229;51.980;6.722;2023-04-29T13:17:34;16.50;99.90
64796;DHT22;51229;51.980;6.722;2023-04-29T13:20:05;16.40;99.90
64796;DHT22;51229;51.980;6.722;2023-04-29T13:22:31;16.00;99.90
64796;DHT22;51229;51.980;6.722;2023-04-29T13:24:57;16.10;99.90
64796;DHT22;51229;51.980;6.722;2023-04-29T13:27:23;16.70;99.90
64796;DHT22;51229;51.980;6.722;2023-04-29T13:29:48;17.60;99.90
64796;DHT22;51229;51.980;6.722;2023-04-29T13:32:14;17.30;99.90
64796;DHT22;51229;51.980;6.722;2023-04-29T13:34:41;16.80;99.90
64796;DHT22;51229;51.980;6.722;2023-04-29T13:37:11;16.40;99.90
64796;DHT22;51229;51.980;6.722;2023-04-29T13:39:37;16.20;99.90
64796;DHT22;51229;51.980;6.722;2023-04-29T13:42:02;15.70;99.90
64796;DHT22;51229;51.980;6.722;2023-04-29T13:44:28;15.60;99.90
64796;DHT22;51229;51.980;6.722;2023-04-29T13:46:55;15.60;99.90
64796;DHT22;51229;51.980;6.722;2023-04-29T13:49:21;15.60;99.90
64796;DHT22;51229;51.980;6.722;2023-04-29T13:51:47;15.50;99.90
64796;DHT22;51229;51.980;6.722;2023-04-29T13:54:13;15.50;99.90
64796;DHT22;51229;51.980;6.722;2023-04-29T13:56:39;15.60;99.90
64796;DHT22;51229;51.980;6.722;2023-04-29T13:59:04;16.50;99.90
64796;DHT22;51229;51.980;6.722;2023-04-29T14:01:30;16.60;99.90
64796;DHT22;51229;51.980;6.722;2023-04-29T14:03:55;16.20;99.90
64796;DHT22;51229;51.980;6.722;2023-04-29T14:06:21;15.90;99.90
64796;DHT22;51229;51.980;6.722;2023-04-29T14:08:47;15.90;99.90
64796;DHT22;51229;51.980;6.722;2023-04-29T14:11:12;15.70;99.90
64796;DHT22;51229;51.980;6.722;2023-04-29T14:13:38;15.70;99.90
64796;DHT22;51229;51.980;6.722;2023-04-29T14:16:04;15.70;99.90
64796;DHT22;51229;51.980;6.722;2023-04-29T14:18:31;15.60;99.90
64796;DHT22;51229;51.980;6.722;2023-04-29T14:20:57;15.50;99.90
64796;DHT22;51229;51.980;6.722;2023-04-29T14:23:24;15.40;99.90
64796;DHT22;51229;51.980;6.722;2023-04-29T14:25:50;15.50;99.90
64796;DHT22;51229;51.980;6.722;2023-04-29T14:28:15;15.60;99.90
64796;DHT22;51229;51.980;6.722;2023-04-29T14:30:41;15.50;99.90
64796;DHT22;51229;51.980;6.722;2023-04-29T14:33:08;15.70;99.90
64796;DHT22;51229;51.980;6.722;2023-04-29T14:35:34;15.70;99.90
64796;DHT22;51229;51.980;6.722;2023-04-29T14:37:59;15.80;99.90
64796;DHT22;51229;51.980;6.722;2023-04-29T14:40:25;15.80;99.90
64796;DHT22;51229;51.980;6.722;2023-04-29T14:42:51;15.90;99.90
64796;DHT22;51229;51.980;6.722;2023-04-29T14:45:17;15.90;99.90
64796;DHT22;51229;51.980;6.722;2023-04-29T14:47:42;15.70;99.90
64796;DHT22;51229;51.980;6.722;2023-04-29T14:50:08;15.60;99.90
64796;DHT22;51229;51.980;6.722;2023-04-29T14:52:35;15.60;99.90
64796;DHT22;51229;51.980;6.722;2023-04-29T14:55:01;15.40;99.90
64796;DHT22;51229;51.980;6.722;2023-04-29T14:57:27;15.20;99.90
64796;DHT22;51229;51.980;6.722;2023-04-29T14:59:55;15.30;99.90
64796;DHT22;51229;51.980;6.722;2023-04-29T15:02:20;15.20;99.90
64796;DHT22;51229;51.980;6.722;2023-04-29T15:04:46;15.20;99.90
64796;DHT22;51229;51.980;6.722;2023-04-29T15:07:12;15.20;99.90
64796;DHT22;51229;51.980;6.722;2023-04-29T15:09:38;15.20;99.90
64796;DHT22;51229;51.980;6.722;2023-04-29T15:12:04;15.20;99.90
64796;DHT22;51229;51.980;6.722;2023-04-29T15:14:30;15.30;99.90
64796;DHT22;51229;51.980;6.722;2023-04-29T15:16:56;15.30;99.90
64796;DHT22;51229;51.980;6.722;2023-04-29T15:19:21;15.30;99.90
64796;DHT22;51229;51.980;6.722;2023-04-29T15:21:49;15.30;99.90
64796;DHT22;51229;51.980;6.722;2023-04-29T15:24:16;15.20;99.90
64796;DHT22;51229;51.980;6.722;2023-04-29T15:26:42;15.20;99.90
64796;DHT22;51229;51.980;6.722;2023-04-29T15:29:07;15.10;99.90
64796;DHT22;51229;51.980;6.722;2023-04-29T15:31:33;15.10;99.90
64796;DHT22;51229;51.980;6.722;2023-04-29T15:33:59;15.10;99.90
64796;DHT22;51229;51.980;6.722;2023-04-29T15:36:29;15.00;99.90
64796;DHT22;51229;51.980;6.722;2023-04-29T15:38:55;15.00;99.90
64796;DHT22;51229;51.980;6.722;2023-04-29T15:41:21;14.90;99.90
64796;DHT22;51229;51.980;6.722;2023-04-29T15:43:47;15.00;99.90
64796;DHT22;51229;51.980;6.722;2023-04-29T15:46:13;15.00;99.90
64796;DHT22;51229;51.980;6.722;2023-04-29T15:48:39;15.00;99.90
64796;DHT22;51229;51.980;6.722;2023-04-29T15:51:04;15.00;99.90
64796;DHT22;51229;51.980;6.722;2023-04-29T15:53:30;14.90;99.90
64796;DHT22;51229;51.980;6.722;2023-04-29T15:55:56;14.90;99.90
64796;DHT22;51229;51.980;6.722;2023-04-29T15:58:21;14.90;99.90
64796;DHT22;51229;51.980;6.722;2023-04-29T16:00:47;14.80;99.90
64796;DHT22;51229;51.980;6.722;2023-04-29T16:03:13;14.70;99.90
64796;DHT22;51229;51.980;6.722;2023-04-29T16:05:38;14.70;99.90